sensor_id;sensor_type;location;lat;lon;timestamp;P1;durP1;ratioP1;P2;durP2;ratioP2
15936;SDS011;9163;48.818;8.976;2022-10-29T00:00:43;14.60;;;4.70;;
15936;SDS011;9163;48.818;8.976;2022-10-29T00:03:12;13.83;;;4.03;;
15936;SDS011;9163;48.818;8.976;2022-10-29T00:05:39;12.80;;;4.30;;
15936;SDS011;9163;48.818;8.976;2022-10-29T00:08:06;10.30;;;4.37;;
15936;SDS011;9163;48.818;8.976;2022-10-29T00:10:34;10.43;;;4.60;;
15936;SDS011;9163;48.818;8.976;2022-10-29T00:13:01;10.27;;;4.10;;
15936;SDS011;9163;48.818;8.976;2022-10-29T00:15:29;12.03;;;4.30;;
15936;SDS011;9163;48.818;8.976;2022-10-29T00:17:56;12.80;;;4.43;;
15936;SDS011;9163;48.818;8.976;2022-10-29T00:20:25;13.83;;;4.57;;
15936;SDS011;9163;48.818;8.976;2022-10-29T00:22:52;11.73;;;4.20;;
15936;SDS011;9163;48.818;8.976;2022-10-29T00:25:20;10.40;;;4.40;;
15936;SDS011;9163;48.818;8.976;2022-10-29T00:27:47;11.47;;;4.50;;
15936;SDS011;9163;48.818;8.976;2022-10-29T00:30:14;11.87;;;4.53;;
15936;SDS011;9163;48.818;8.976;2022-10-29T00:32:41;12.97;;;4.43;;
15936;SDS011;9163;48.818;8.976;2022-10-29T00:35:09;13.20;;;4.90;;
15936;SDS011;9163;48.818;8.976;2022-10-29T00:37:37;9.27;;;4.20;;
15936;SDS011;9163;48.818;8.976;2022-10-29T00:40:05;11.53;;;4.67;;
15936;SDS011;9163;48.818;8.976;2022-10-29T00:42:34;10.47;;;4.43;;
15936;SDS011;9163;48.818;8.976;2022-10-29T00:45:01;9.03;;;4.40;;
15936;SDS011;9163;48.818;8.976;2022-10-29T00:47:28;12.17;;;4.50;;
15936;SDS011;9163;48.818;8.976;2022-10-29T00:50:00;12.80;;;4.83;;
15936;SDS011;9163;48.818;8.976;2022-10-29T00:52:30;11.10;;;4.80;;
15936;SDS011;9163;48.818;8.976;2022-10-29T00:55:02;11.13;;;5.10;;
15936;SDS011;9163;48.818;8.976;2022-10-29T00:57:33;11.60;;;4.67;;
15936;SDS011;9163;48.818;8.976;2022-10-29T01:00:03;8.97;;;4.67;;
15936;SDS011;9163;48.818;8.976;2022-10-29T01:02:30;14.30;;;5.20;;
15936;SDS011;9163;48.818;8.976;2022-10-29T01:05:00;12.90;;;4.50;;
15936;SDS011;9163;48.818;8.976;2022-10-29T01:07:29;10.77;;;4.50;;
15936;SDS011;9163;48.818;8.976;2022-10-29T01:09:57;11.57;;;4.80;;
15936;SDS011;9163;48.818;8.976;2022-10-29T01:12:34;10.27;;;4.47;;
15936;SDS011;9163;48.818;8.976;2022-10-29T01:15:17;12.10;;;4.30;;
15936;SDS011;9163;48.818;8.976;2022-10-29T01:17:53;13.37;;;4.57;;
15936;SDS011;9163;48.818;8.976;2022-10-29T01:30:11;12.80;;;4.50;;
15936;SDS011;9163;48.818;8.976;2022-10-29T01:32:48;9.80;;;4.70;;
15936;SDS011;9163;48.818;8.976;2022-10-29T01:35:24;10.00;;;3.97;;
15936;SDS011;9163;48.818;8.976;2022-10-29T01:38:03;12.20;;;4.40;;
15936;SDS011;9163;48.818;8.976;2022-10-29T01:40:38;9.73;;;4.47;;
15936;SDS011;9163;48.818;8.976;2022-10-29T01:43:10;11.80;;;4.27;;
15936;SDS011;9163;48.818;8.976;2022-10-29T01:45:44;11.13;;;4.63;;
15936;SDS011;9163;48.818;8.976;2022-10-29T01:48:18;15.37;;;5.13;;
15936;SDS011;9163;48.818;8.976;2022-10-29T01:50:50;14.30;;;4.77;;
15936;SDS011;9163;48.818;8.976;2022-10-29T01:53:20;12.23;;;4.90;;
15936;SDS011;9163;48.818;8.976;2022-10-29T01:55:48;12.27;;;4.40;;
15936;SDS011;9163;48.818;8.976;2022-10-29T01:58:15;10.97;;;4.40;;
15936;SDS011;9163;48.818;8.976;2022-10-29T02:00:45;13.43;;;5.13;;
15936;SDS011;9163;48.818;8.976;2022-10-29T02:03:23;11.77;;;5.03;;
15936;SDS011;9163;48.818;8.976;2022-10-29T02:05:59;11.83;;;4.40;;
15936;SDS011;9163;48.818;8.976;2022-10-29T02:08:35;9.00;;;5.17;;
15936;SDS011;9163;48.818;8.976;2022-10-29T02:11:08;13.07;;;4.57;;
15936;SDS011;9163;48.818;8.976;2022-10-29T02:13:40;15.07;;;4.90;;
15936;SDS011;9163;48.818;8.976;2022-10-29T02:16:12;11.83;;;4.77;;
15936;SDS011;9163;48.818;8.976;2022-10-29T02:18:42;9.30;;;4.67;;
15936;SDS011;9163;48.818;8.976;2022-10-29T02:21:14;12.80;;;4.60;;
15936;SDS011;9163;48.818;8.976;2022-10-29T02:23:41;15.07;;;5.10;;
15936;SDS011;9163;48.818;8.976;2022-10-29T02:26:09;15.27;;;4.63;;
15936;SDS011;9163;48.818;8.976;2022-10-29T02:28:36;13.83;;;5.00;;
15936;SDS011;9163;48.818;8.976;2022-10-29T02:31:04;10.97;;;4.77;;
15936;SDS011;9163;48.818;8.976;2022-10-29T02:33:31;13.70;;;5.10;;
15936;SDS011;9163;48.818;8.976;2022-10-29T02:36:00;14.20;;;4.70;;
15936;SDS011;9163;48.818;8.976;2022-10-29T02:38:27;13.17;;;5.10;;
15936;SDS011;9163;48.818;8.976;2022-10-29T02:40:54;13.23;;;5.13;;
15936;SDS011;9163;48.818;8.976;2022-10-29T02:43:21;8.00;;;4.23;;
15936;SDS011;9163;48.818;8.976;2022-10-29T02:45:48;12.90;;;4.67;;
15936;SDS011;9163;48.818;8.976;2022-10-29T02:48:22;14.03;;;4.67;;
15936;SDS011;9163;48.818;8.976;2022-10-29T02:50:49;15.57;;;5.20;;
15936;SDS011;9163;48.818;8.976;2022-10-29T02:53:18;13.20;;;5.00;;
15936;SDS011;9163;48.818;8.976;2022-10-29T02:55:45;11.80;;;5.00;;
15936;SDS011;9163;48.818;8.976;2022-10-29T02:58:12;12.90;;;4.73;;
15936;SDS011;9163;48.818;8.976;2022-10-29T03:00:39;9.87;;;4.53;;
15936;SDS011;9163;48.818;8.976;2022-10-29T03:03:06;13.47;;;4.60;;
15936;SDS011;9163;48.818;8.976;2022-10-29T03:05:34;9.83;;;4.40;;
15936;SDS011;9163;48.818;8.976;2022-10-29T03:08:03;12.37;;;4.37;;
15936;SDS011;9163;48.818;8.976;2022-10-29T03:10:32;12.23;;;4.60;;
15936;SDS011;9163;48.818;8.976;2022-10-29T03:12:59;11.67;;;4.70;;
15936;SDS011;9163;48.818;8.976;2022-10-29T03:15:27;12.77;;;4.60;;
15936;SDS011;9163;48.818;8.976;2022-10-29T03:17:54;13.70;;;4.40;;
15936;SDS011;9163;48.818;8.976;2022-10-29T03:20:21;13.57;;;4.50;;
15936;SDS011;9163;48.818;8.976;2022-10-29T03:22:48;11.63;;;4.57;;
15936;SDS011;9163;48.818;8.976;2022-10-29T03:25:15;8.60;;;4.40;;
15936;SDS011;9163;48.818;8.976;2022-10-29T03:27:44;11.50;;;4.53;;
15936;SDS011;9163;48.818;8.976;2022-10-29T03:30:13;12.07;;;4.47;;
15936;SDS011;9163;48.818;8.976;2022-10-29T03:32:42;9.67;;;4.17;;
15936;SDS011;9163;48.818;8.976;2022-10-29T03:35:10;10.50;;;4.50;;
15936;SDS011;9163;48.818;8.976;2022-10-29T03:37:39;10.00;;;4.17;;
15936;SDS011;9163;48.818;8.976;2022-10-29T03:40:07;14.37;;;4.57;;
15936;SDS011;9163;48.818;8.976;2022-10-29T03:42:35;10.67;;;4.10;;
15936;SDS011;9163;48.818;8.976;2022-10-29T03:45:05;10.63;;;4.60;;
15936;SDS011;9163;48.818;8.976;2022-10-29T03:47:34;10.70;;;4.77;;
15936;SDS011;9163;48.818;8.976;2022-10-29T03:50:02;9.03;;;4.40;;
15936;SDS011;9163;48.818;8.976;2022-10-29T03:52:29;9.70;;;4.30;;
15936;SDS011;9163;48.818;8.976;2022-10-29T03:54:57;9.27;;;4.40;;
15936;SDS011;9163;48.818;8.976;2022-10-29T03:57:24;12.50;;;4.10;;
15936;SDS011;9163;48.818;8.976;2022-10-29T03:59:51;15.00;;;4.63;;
15936;SDS011;9163;48.818;8.976;2022-10-29T04:02:19;11.77;;;4.60;;
15936;SDS011;9163;48.818;8.976;2022-10-29T04:04:47;10.47;;;4.20;;
15936;SDS011;9163;48.818;8.976;2022-10-29T04:07:14;14.57;;;4.93;;
15936;SDS011;9163;48.818;8.976;2022-10-29T04:09:41;10.83;;;4.93;;
15936;SDS011;9163;48.818;8.976;2022-10-29T04:12:08;13.33;;;4.57;;
15936;SDS011;9163;48.818;8.976;2022-10-29T04:14:35;11.67;;;4.30;;
15936;SDS011;9163;48.818;8.976;2022-10-29T04:17:02;11.70;;;4.33;;
15936;SDS011;9163;48.818;8.976;2022-10-29T04:19:31;11.53;;;4.90;;
15936;SDS011;9163;48.818;8.976;2022-10-29T04:21:58;11.90;;;4.97;;
15936;SDS011;9163;48.818;8.976;2022-10-29T04:24:25;12.30;;;4.80;;
15936;SDS011;9163;48.818;8.976;2022-10-29T04:26:52;10.27;;;4.60;;
15936;SDS011;9163;48.818;8.976;2022-10-29T04:29:20;12.10;;;4.20;;
15936;SDS011;9163;48.818;8.976;2022-10-29T04:31:47;11.10;;;4.67;;
15936;SDS011;9163;48.818;8.976;2022-10-29T04:34:14;11.90;;;4.10;;
15936;SDS011;9163;48.818;8.976;2022-10-29T04:36:43;14.20;;;4.53;;
15936;SDS011;9163;48.818;8.976;2022-10-29T04:39:10;14.37;;;5.37;;
15936;SDS011;9163;48.818;8.976;2022-10-29T04:41:37;10.87;;;4.60;;
15936;SDS011;9163;48.818;8.976;2022-10-29T04:44:04;14.97;;;4.70;;
15936;SDS011;9163;48.818;8.976;2022-10-29T04:46:31;12.13;;;4.60;;
15936;SDS011;9163;48.818;8.976;2022-10-29T04:48:59;11.87;;;5.13;;
15936;SDS011;9163;48.818;8.976;2022-10-29T04:51:26;9.77;;;4.70;;
15936;SDS011;9163;48.818;8.976;2022-10-29T04:53:54;13.47;;;4.70;;
15936;SDS011;9163;48.818;8.976;2022-10-29T04:56:22;13.67;;;4.73;;
15936;SDS011;9163;48.818;8.976;2022-10-29T04:58:49;11.90;;;4.63;;
15936;SDS011;9163;48.818;8.976;2022-10-29T05:01:17;11.17;;;4.50;;
15936;SDS011;9163;48.818;8.976;2022-10-29T05:03:44;9.03;;;4.07;;
15936;SDS011;9163;48.818;8.976;2022-10-29T05:06:12;12.17;;;4.40;;
15936;SDS011;9163;48.818;8.976;2022-10-29T05:08:39;8.77;;;4.00;;
15936;SDS011;9163;48.818;8.976;2022-10-29T05:11:07;11.80;;;4.33;;
15936;SDS011;9163;48.818;8.976;2022-10-29T05:13:34;7.73;;;3.87;;
15936;SDS011;9163;48.818;8.976;2022-10-29T05:16:02;11.27;;;4.27;;
15936;SDS011;9163;48.818;8.976;2022-10-29T05:18:29;14.63;;;4.50;;
15936;SDS011;9163;48.818;8.976;2022-10-29T05:20:56;14.07;;;4.83;;
15936;SDS011;9163;48.818;8.976;2022-10-29T05:23:23;13.30;;;4.40;;
15936;SDS011;9163;48.818;8.976;2022-10-29T05:25:51;11.13;;;4.50;;
15936;SDS011;9163;48.818;8.976;2022-10-29T05:28:22;9.83;;;4.43;;
15936;SDS011;9163;48.818;8.976;2022-10-29T05:30:50;12.30;;;4.30;;
15936;SDS011;9163;48.818;8.976;2022-10-29T05:33:19;11.97;;;4.37;;
15936;SDS011;9163;48.818;8.976;2022-10-29T05:35:47;8.73;;;4.00;;
15936;SDS011;9163;48.818;8.976;2022-10-29T05:38:15;12.67;;;4.87;;
15936;SDS011;9163;48.818;8.976;2022-10-29T05:40:43;10.27;;;5.30;;
15936;SDS011;9163;48.818;8.976;2022-10-29T05:43:10;13.23;;;5.30;;
15936;SDS011;9163;48.818;8.976;2022-10-29T05:45:39;8.63;;;5.10;;
15936;SDS011;9163;48.818;8.976;2022-10-29T05:48:07;18.33;;;8.40;;
15936;SDS011;9163;48.818;8.976;2022-10-29T05:50:36;15.07;;;6.57;;
15936;SDS011;9163;48.818;8.976;2022-10-29T05:53:03;10.97;;;4.20;;
15936;SDS011;9163;48.818;8.976;2022-10-29T05:55:32;11.90;;;4.50;;
15936;SDS011;9163;48.818;8.976;2022-10-29T05:58:00;11.23;;;4.57;;
15936;SDS011;9163;48.818;8.976;2022-10-29T06:00:30;9.10;;;4.00;;
15936;SDS011;9163;48.818;8.976;2022-10-29T06:03:00;15.43;;;4.83;;
15936;SDS011;9163;48.818;8.976;2022-10-29T06:05:27;10.43;;;4.43;;
15936;SDS011;9163;48.818;8.976;2022-10-29T06:07:55;11.37;;;4.20;;
15936;SDS011;9163;48.818;8.976;2022-10-29T06:10:23;9.93;;;4.80;;
15936;SDS011;9163;48.818;8.976;2022-10-29T06:12:51;12.60;;;4.20;;
15936;SDS011;9163;48.818;8.976;2022-10-29T06:15:19;13.83;;;4.57;;
15936;SDS011;9163;48.818;8.976;2022-10-29T06:17:47;11.37;;;4.50;;
15936;SDS011;9163;48.818;8.976;2022-10-29T06:20:16;10.77;;;4.90;;
15936;SDS011;9163;48.818;8.976;2022-10-29T06:22:46;11.13;;;4.50;;
15936;SDS011;9163;48.818;8.976;2022-10-29T06:25:21;11.87;;;4.47;;
15936;SDS011;9163;48.818;8.976;2022-10-29T06:27:55;12.13;;;5.47;;
15936;SDS011;9163;48.818;8.976;2022-10-29T06:30:23;12.57;;;6.30;;
15936;SDS011;9163;48.818;8.976;2022-10-29T06:32:50;10.10;;;4.40;;
15936;SDS011;9163;48.818;8.976;2022-10-29T06:35:19;14.27;;;5.50;;
15936;SDS011;9163;48.818;8.976;2022-10-29T06:37:46;17.27;;;5.90;;
15936;SDS011;9163;48.818;8.976;2022-10-29T06:40:13;13.27;;;5.17;;
15936;SDS011;9163;48.818;8.976;2022-10-29T06:42:41;11.23;;;4.20;;
15936;SDS011;9163;48.818;8.976;2022-10-29T06:45:09;11.27;;;4.60;;
15936;SDS011;9163;48.818;8.976;2022-10-29T06:47:37;10.60;;;3.97;;
15936;SDS011;9163;48.818;8.976;2022-10-29T06:50:05;13.90;;;4.33;;
15936;SDS011;9163;48.818;8.976;2022-10-29T06:52:35;10.67;;;4.17;;
15936;SDS011;9163;48.818;8.976;2022-10-29T06:55:04;12.73;;;3.77;;
15936;SDS011;9163;48.818;8.976;2022-10-29T06:57:33;12.23;;;3.90;;
15936;SDS011;9163;48.818;8.976;2022-10-29T07:00:00;13.57;;;5.83;;
15936;SDS011;9163;48.818;8.976;2022-10-29T07:02:27;12.03;;;4.80;;
15936;SDS011;9163;48.818;8.976;2022-10-29T07:04:54;13.57;;;5.10;;
15936;SDS011;9163;48.818;8.976;2022-10-29T07:07:22;13.07;;;4.50;;
15936;SDS011;9163;48.818;8.976;2022-10-29T07:09:50;7.40;;;3.77;;
15936;SDS011;9163;48.818;8.976;2022-10-29T07:12:17;10.30;;;4.30;;
15936;SDS011;9163;48.818;8.976;2022-10-29T07:14:44;8.90;;;3.60;;
15936;SDS011;9163;48.818;8.976;2022-10-29T07:17:12;10.17;;;4.13;;
15936;SDS011;9163;48.818;8.976;2022-10-29T07:19:39;9.13;;;4.17;;
15936;SDS011;9163;48.818;8.976;2022-10-29T07:22:06;11.73;;;4.23;;
15936;SDS011;9163;48.818;8.976;2022-10-29T07:24:33;10.63;;;3.90;;
15936;SDS011;9163;48.818;8.976;2022-10-29T07:27:01;10.73;;;3.90;;
15936;SDS011;9163;48.818;8.976;2022-10-29T07:29:31;13.40;;;4.43;;
15936;SDS011;9163;48.818;8.976;2022-10-29T07:31:58;10.00;;;4.00;;
15936;SDS011;9163;48.818;8.976;2022-10-29T07:34:25;13.50;;;4.27;;
15936;SDS011;9163;48.818;8.976;2022-10-29T07:36:52;11.37;;;4.10;;
15936;SDS011;9163;48.818;8.976;2022-10-29T07:39:19;9.37;;;4.20;;
15936;SDS011;9163;48.818;8.976;2022-10-29T07:41:47;10.63;;;4.37;;
15936;SDS011;9163;48.818;8.976;2022-10-29T07:44:15;14.27;;;4.77;;
15936;SDS011;9163;48.818;8.976;2022-10-29T07:46:42;10.50;;;3.70;;
15936;SDS011;9163;48.818;8.976;2022-10-29T07:49:10;7.50;;;3.87;;
15936;SDS011;9163;48.818;8.976;2022-10-29T07:51:37;8.77;;;3.90;;
15936;SDS011;9163;48.818;8.976;2022-10-29T07:54:04;7.27;;;3.80;;
15936;SDS011;9163;48.818;8.976;2022-10-29T07:56:32;11.47;;;4.53;;
15936;SDS011;9163;48.818;8.976;2022-10-29T07:58:59;11.17;;;4.13;;
15936;SDS011;9163;48.818;8.976;2022-10-29T08:01:27;13.20;;;3.97;;
15936;SDS011;9163;48.818;8.976;2022-10-29T08:03:54;10.50;;;4.37;;
15936;SDS011;9163;48.818;8.976;2022-10-29T08:06:22;7.67;;;3.90;;
15936;SDS011;9163;48.818;8.976;2022-10-29T08:08:49;12.87;;;4.30;;
15936;SDS011;9163;48.818;8.976;2022-10-29T08:11:16;12.40;;;3.97;;
15936;SDS011;9163;48.818;8.976;2022-10-29T08:13:43;11.33;;;3.53;;
15936;SDS011;9163;48.818;8.976;2022-10-29T08:16:10;9.57;;;3.73;;
15936;SDS011;9163;48.818;8.976;2022-10-29T08:18:39;10.80;;;4.03;;
15936;SDS011;9163;48.818;8.976;2022-10-29T08:21:06;9.63;;;3.63;;
15936;SDS011;9163;48.818;8.976;2022-10-29T08:23:33;8.53;;;3.77;;
15936;SDS011;9163;48.818;8.976;2022-10-29T08:26:00;11.07;;;4.30;;
15936;SDS011;9163;48.818;8.976;2022-10-29T08:28:28;12.23;;;4.23;;
15936;SDS011;9163;48.818;8.976;2022-10-29T08:30:58;10.93;;;3.83;;
15936;SDS011;9163;48.818;8.976;2022-10-29T08:33:25;10.43;;;3.50;;
15936;SDS011;9163;48.818;8.976;2022-10-29T08:35:53;10.67;;;4.07;;
15936;SDS011;9163;48.818;8.976;2022-10-29T08:38:21;10.03;;;3.50;;
15936;SDS011;9163;48.818;8.976;2022-10-29T08:40:52;10.57;;;3.60;;
15936;SDS011;9163;48.818;8.976;2022-10-29T08:46:34;9.50;;;3.07;;
15936;SDS011;9163;48.818;8.976;2022-10-29T08:49:09;9.03;;;3.27;;
15936;SDS011;9163;48.818;8.976;2022-10-29T08:51:42;9.77;;;3.47;;
15936;SDS011;9163;48.818;8.976;2022-10-29T08:54:15;8.23;;;3.13;;
15936;SDS011;9163;48.818;8.976;2022-10-29T08:56:44;8.60;;;3.63;;
15936;SDS011;9163;48.818;8.976;2022-10-29T08:59:15;10.10;;;3.67;;
15936;SDS011;9163;48.818;8.976;2022-10-29T09:01:43;10.03;;;3.40;;
15936;SDS011;9163;48.818;8.976;2022-10-29T09:09:50;8.47;;;3.27;;
15936;SDS011;9163;48.818;8.976;2022-10-29T09:12:31;8.87;;;3.60;;
15936;SDS011;9163;48.818;8.976;2022-10-29T09:15:13;9.33;;;3.20;;
15936;SDS011;9163;48.818;8.976;2022-10-29T09:17:55;10.60;;;3.53;;
15936;SDS011;9163;48.818;8.976;2022-10-29T09:20:36;9.82;;;3.25;;
15936;SDS011;9163;48.818;8.976;2022-10-29T09:23:16;8.63;;;3.30;;
15936;SDS011;9163;48.818;8.976;2022-10-29T09:25:55;9.48;;;3.08;;
15936;SDS011;9163;48.818;8.976;2022-10-29T09:28:30;9.32;;;3.80;;
15936;SDS011;9163;48.818;8.976;2022-10-29T09:31:07;10.10;;;3.33;;
15936;SDS011;9163;48.818;8.976;2022-10-29T09:33:43;8.40;;;3.30;;
15936;SDS011;9163;48.818;8.976;2022-10-29T09:36:14;10.50;;;3.42;;
15936;SDS011;9163;48.818;8.976;2022-10-29T09:38:45;13.18;;;3.53;;
15936;SDS011;9163;48.818;8.976;2022-10-29T09:41:21;9.02;;;3.80;;
15936;SDS011;9163;48.818;8.976;2022-10-29T09:43:54;11.23;;;4.00;;
15936;SDS011;9163;48.818;8.976;2022-10-29T09:46:29;8.10;;;3.13;;
15936;SDS011;9163;48.818;8.976;2022-10-29T09:49:02;10.52;;;3.53;;
15936;SDS011;9163;48.818;8.976;2022-10-29T09:51:41;10.77;;;3.67;;
15936;SDS011;9163;48.818;8.976;2022-10-29T09:54:18;9.57;;;3.30;;
15936;SDS011;9163;48.818;8.976;2022-10-29T09:56:46;12.13;;;3.80;;
15936;SDS011;9163;48.818;8.976;2022-10-29T09:59:16;9.07;;;3.67;;
15936;SDS011;9163;48.818;8.976;2022-10-29T10:01:49;10.35;;;3.38;;
15936;SDS011;9163;48.818;8.976;2022-10-29T10:04:19;8.52;;;3.53;;
15936;SDS011;9163;48.818;8.976;2022-10-29T10:09:54;11.02;;;3.90;;
15936;SDS011;9163;48.818;8.976;2022-10-29T10:12:24;9.45;;;3.05;;
15936;SDS011;9163;48.818;8.976;2022-10-29T10:17:58;11.55;;;3.20;;
15936;SDS011;9163;48.818;8.976;2022-10-29T10:20:28;12.30;;;3.45;;
15936;SDS011;9163;48.818;8.976;2022-10-29T10:23:22;8.52;;;3.05;;
15936;SDS011;9163;48.818;8.976;2022-10-29T10:25:53;8.63;;;3.42;;
15936;SDS011;9163;48.818;8.976;2022-10-29T10:28:22;9.00;;;3.60;;
15936;SDS011;9163;48.818;8.976;2022-10-29T10:31:04;11.20;;;3.45;;
15936;SDS011;9163;48.818;8.976;2022-10-29T10:33:35;9.93;;;3.65;;
15936;SDS011;9163;48.818;8.976;2022-10-29T10:36:09;8.32;;;3.20;;
15936;SDS011;9163;48.818;8.976;2022-10-29T10:38:37;11.50;;;3.42;;
15936;SDS011;9163;48.818;8.976;2022-10-29T10:41:08;10.55;;;3.63;;
15936;SDS011;9163;48.818;8.976;2022-10-29T10:43:40;10.00;;;3.70;;
15936;SDS011;9163;48.818;8.976;2022-10-29T10:46:11;9.73;;;3.10;;
15936;SDS011;9163;48.818;8.976;2022-10-29T10:48:41;8.68;;;3.40;;
15936;SDS011;9163;48.818;8.976;2022-10-29T10:51:11;8.45;;;3.25;;
15936;SDS011;9163;48.818;8.976;2022-10-29T10:53:44;9.15;;;2.95;;
15936;SDS011;9163;48.818;8.976;2022-10-29T10:56:17;7.40;;;3.22;;
15936;SDS011;9163;48.818;8.976;2022-10-29T10:58:48;5.32;;;3.25;;
15936;SDS011;9163;48.818;8.976;2022-10-29T11:01:22;8.05;;;3.25;;
15936;SDS011;9163;48.818;8.976;2022-10-29T11:03:57;8.15;;;3.00;;
15936;SDS011;9163;48.818;8.976;2022-10-29T11:06:31;9.68;;;3.55;;
15936;SDS011;9163;48.818;8.976;2022-10-29T11:09:01;11.07;;;3.40;;
15936;SDS011;9163;48.818;8.976;2022-10-29T11:11:36;10.52;;;3.30;;
15936;SDS011;9163;48.818;8.976;2022-10-29T11:14:08;7.88;;;2.97;;
15936;SDS011;9163;48.818;8.976;2022-10-29T11:16:41;8.88;;;3.80;;
15936;SDS011;9163;48.818;8.976;2022-10-29T11:19:14;7.90;;;3.20;;
15936;SDS011;9163;48.818;8.976;2022-10-29T11:21:50;10.20;;;3.38;;
15936;SDS011;9163;48.818;8.976;2022-10-29T11:24:29;8.00;;;3.00;;
15936;SDS011;9163;48.818;8.976;2022-10-29T11:27:05;11.25;;;3.53;;
15936;SDS011;9163;48.818;8.976;2022-10-29T11:29:41;9.15;;;3.17;;
15936;SDS011;9163;48.818;8.976;2022-10-29T11:32:14;10.38;;;3.38;;
15936;SDS011;9163;48.818;8.976;2022-10-29T11:34:47;9.68;;;3.83;;
15936;SDS011;9163;48.818;8.976;2022-10-29T11:37:20;9.02;;;3.10;;
15936;SDS011;9163;48.818;8.976;2022-10-29T11:39:54;10.82;;;2.97;;
15936;SDS011;9163;48.818;8.976;2022-10-29T11:42:26;11.32;;;3.47;;
15936;SDS011;9163;48.818;8.976;2022-10-29T11:44:53;10.38;;;3.60;;
15936;SDS011;9163;48.818;8.976;2022-10-29T11:47:33;10.05;;;3.65;;
15936;SDS011;9163;48.818;8.976;2022-10-29T11:50:13;6.93;;;2.92;;
15936;SDS011;9163;48.818;8.976;2022-10-29T11:52:50;8.98;;;3.38;;
15936;SDS011;9163;48.818;8.976;2022-10-29T11:55:26;8.60;;;3.25;;
15936;SDS011;9163;48.818;8.976;2022-10-29T11:58:01;10.70;;;3.13;;
15936;SDS011;9163;48.818;8.976;2022-10-29T12:00:39;9.30;;;3.50;;
15936;SDS011;9163;48.818;8.976;2022-10-29T12:03:27;9.95;;;3.30;;
15936;SDS011;9163;48.818;8.976;2022-10-29T12:06:12;11.43;;;3.03;;
15936;SDS011;9163;48.818;8.976;2022-10-29T12:08:55;8.15;;;3.33;;
15936;SDS011;9163;48.818;8.976;2022-10-29T12:11:32;11.65;;;3.45;;
15936;SDS011;9163;48.818;8.976;2022-10-29T12:14:11;9.18;;;3.45;;
15936;SDS011;9163;48.818;8.976;2022-10-29T12:16:48;9.00;;;3.33;;
15936;SDS011;9163;48.818;8.976;2022-10-29T12:19:25;7.35;;;3.00;;
15936;SDS011;9163;48.818;8.976;2022-10-29T12:22:04;9.05;;;3.10;;
15936;SDS011;9163;48.818;8.976;2022-10-29T12:24:45;8.45;;;2.80;;
15936;SDS011;9163;48.818;8.976;2022-10-29T12:27:24;9.80;;;3.28;;
15936;SDS011;9163;48.818;8.976;2022-10-29T12:30:03;8.80;;;3.33;;
15936;SDS011;9163;48.818;8.976;2022-10-29T12:32:33;10.30;;;3.30;;
15936;SDS011;9163;48.818;8.976;2022-10-29T12:35:05;12.65;;;3.50;;
15936;SDS011;9163;48.818;8.976;2022-10-29T12:37:42;9.35;;;2.80;;
15936;SDS011;9163;48.818;8.976;2022-10-29T12:40:15;7.43;;;2.85;;
15936;SDS011;9163;48.818;8.976;2022-10-29T12:42:48;8.10;;;3.55;;
15936;SDS011;9163;48.818;8.976;2022-10-29T12:45:23;8.77;;;3.30;;
15936;SDS011;9163;48.818;8.976;2022-10-29T12:48:01;9.07;;;2.97;;
15936;SDS011;9163;48.818;8.976;2022-10-29T12:50:37;6.25;;;3.30;;
15936;SDS011;9163;48.818;8.976;2022-10-29T12:53:15;11.82;;;3.70;;
15936;SDS011;9163;48.818;8.976;2022-10-29T12:55:49;6.07;;;2.95;;
15936;SDS011;9163;48.818;8.976;2022-10-29T13:04:24;9.73;;;3.40;;
15936;SDS011;9163;48.818;8.976;2022-10-29T13:06:59;10.80;;;3.30;;
15936;SDS011;9163;48.818;8.976;2022-10-29T13:09:29;10.15;;;3.30;;
15936;SDS011;9163;48.818;8.976;2022-10-29T13:11:59;13.57;;;3.30;;
15936;SDS011;9163;48.818;8.976;2022-10-29T13:14:29;7.47;;;3.00;;
15936;SDS011;9163;48.818;8.976;2022-10-29T13:17:03;11.45;;;3.20;;
15936;SDS011;9163;48.818;8.976;2022-10-29T13:19:37;10.55;;;3.42;;
15936;SDS011;9163;48.818;8.976;2022-10-29T13:37:36;9.43;;;3.00;;
15936;SDS011;9163;48.818;8.976;2022-10-29T13:43:27;9.32;;;3.20;;
15936;SDS011;9163;48.818;8.976;2022-10-29T13:46:17;9.85;;;3.00;;
15936;SDS011;9163;48.818;8.976;2022-10-29T13:48:58;11.13;;;2.70;;
15936;SDS011;9163;48.818;8.976;2022-10-29T13:51:36;10.68;;;3.47;;
15936;SDS011;9163;48.818;8.976;2022-10-29T13:54:07;7.70;;;3.10;;
15936;SDS011;9163;48.818;8.976;2022-10-29T13:56:42;8.93;;;3.25;;
15936;SDS011;9163;48.818;8.976;2022-10-29T13:59:18;10.27;;;2.92;;
15936;SDS011;9163;48.818;8.976;2022-10-29T14:01:54;11.27;;;3.60;;
15936;SDS011;9163;48.818;8.976;2022-10-29T14:04:27;12.75;;;3.47;;
15936;SDS011;9163;48.818;8.976;2022-10-29T14:07:01;11.25;;;3.05;;
15936;SDS011;9163;48.818;8.976;2022-10-29T14:09:39;9.15;;;3.00;;
15936;SDS011;9163;48.818;8.976;2022-10-29T14:12:10;8.38;;;3.20;;
15936;SDS011;9163;48.818;8.976;2022-10-29T14:14:46;6.70;;;2.78;;
15936;SDS011;9163;48.818;8.976;2022-10-29T14:17:21;10.52;;;3.13;;
15936;SDS011;9163;48.818;8.976;2022-10-29T14:19:49;13.10;;;3.40;;
15936;SDS011;9163;48.818;8.976;2022-10-29T14:22:22;10.38;;;2.80;;
15936;SDS011;9163;48.818;8.976;2022-10-29T14:24:58;7.63;;;3.00;;
15936;SDS011;9163;48.818;8.976;2022-10-29T14:27:26;10.32;;;3.10;;
15936;SDS011;9163;48.818;8.976;2022-10-29T14:32:39;13.05;;;3.10;;
15936;SDS011;9163;48.818;8.976;2022-10-29T14:35:13;13.02;;;2.90;;
15936;SDS011;9163;48.818;8.976;2022-10-29T14:37:42;9.38;;;2.95;;
15936;SDS011;9163;48.818;8.976;2022-10-29T14:40:14;12.10;;;2.92;;
15936;SDS011;9163;48.818;8.976;2022-10-29T14:42:45;8.65;;;2.85;;
15936;SDS011;9163;48.818;8.976;2022-10-29T14:45:16;10.80;;;2.63;;
15936;SDS011;9163;48.818;8.976;2022-10-29T14:47:49;9.67;;;3.10;;
15936;SDS011;9163;48.818;8.976;2022-10-29T14:50:19;8.93;;;3.20;;
15936;SDS011;9163;48.818;8.976;2022-10-29T14:52:50;10.53;;;3.77;;
15936;SDS011;9163;48.818;8.976;2022-10-29T14:55:20;12.20;;;3.37;;
15936;SDS011;9163;48.818;8.976;2022-10-29T14:57:51;8.03;;;2.80;;
15936;SDS011;9163;48.818;8.976;2022-10-29T15:00:26;11.30;;;3.17;;
15936;SDS011;9163;48.818;8.976;2022-10-29T15:02:55;8.27;;;3.20;;
15936;SDS011;9163;48.818;8.976;2022-10-29T15:05:23;11.77;;;3.03;;
15936;SDS011;9163;48.818;8.976;2022-10-29T15:08:03;8.97;;;3.20;;
15936;SDS011;9163;48.818;8.976;2022-10-29T15:10:32;10.53;;;3.50;;
15936;SDS011;9163;48.818;8.976;2022-10-29T15:13:17;11.50;;;3.40;;
15936;SDS011;9163;48.818;8.976;2022-10-29T15:15:51;8.93;;;3.13;;
15936;SDS011;9163;48.818;8.976;2022-10-29T15:18:20;10.63;;;3.17;;
15936;SDS011;9163;48.818;8.976;2022-10-29T15:20:49;9.67;;;2.90;;
15936;SDS011;9163;48.818;8.976;2022-10-29T15:23:21;11.07;;;3.20;;
15936;SDS011;9163;48.818;8.976;2022-10-29T15:25:52;8.27;;;3.23;;
15936;SDS011;9163;48.818;8.976;2022-10-29T15:28:24;13.50;;;3.40;;
15936;SDS011;9163;48.818;8.976;2022-10-29T15:30:53;9.17;;;3.37;;
15936;SDS011;9163;48.818;8.976;2022-10-29T15:33:21;10.03;;;3.10;;
15936;SDS011;9163;48.818;8.976;2022-10-29T15:35:53;9.20;;;2.90;;
15936;SDS011;9163;48.818;8.976;2022-10-29T15:41:33;10.00;;;3.27;;
15936;SDS011;9163;48.818;8.976;2022-10-29T15:44:11;11.17;;;3.50;;
15936;SDS011;9163;48.818;8.976;2022-10-29T15:46:53;11.97;;;3.17;;
15936;SDS011;9163;48.818;8.976;2022-10-29T15:49:23;12.93;;;3.57;;
15936;SDS011;9163;48.818;8.976;2022-10-29T15:51:51;10.50;;;3.20;;
15936;SDS011;9163;48.818;8.976;2022-10-29T15:54:22;9.30;;;3.40;;
15936;SDS011;9163;48.818;8.976;2022-10-29T15:56:50;11.93;;;3.20;;
15936;SDS011;9163;48.818;8.976;2022-10-29T15:59:18;12.13;;;3.50;;
15936;SDS011;9163;48.818;8.976;2022-10-29T16:01:49;9.97;;;3.47;;
15936;SDS011;9163;48.818;8.976;2022-10-29T16:04:16;9.77;;;3.67;;
15936;SDS011;9163;48.818;8.976;2022-10-29T16:06:43;9.13;;;3.50;;
15936;SDS011;9163;48.818;8.976;2022-10-29T16:09:13;10.33;;;3.40;;